Time;durP1;ratioP1;P1;durP2;ratioP2;P2;SDS_P1;SDS_P2;PMS_P1;PMS_P2;Temp;Humidity;BMP_temperature;BMP_pressure;BME280_temperature;BME280_humidity;BME280_pressure;Samples;Min_cycle;Max_cycle;Signal;HPM_P1;HPM_P2
2022/12/09 00:00:21;;;;;;;;;;;;;;;8.89;80.66;99850.03;5046768;28;20394;-84
2022/12/09 00:02:46;;;;;;;;;;;;;;;9.06;80.59;99847.28;5046559;28;19922;-84
2022/12/09 00:05:11;;;;;;;;;;;;;;;9.09;80.22;99840.25;5046802;28;19920;-84
2022/12/09 00:07:37;;;;;;;;;;;;;;;9.14;79.72;99843.75;5045996;28;20399;-84
2022/12/09 00:10:03;;;;;;;;;;;;;;;9.12;80.14;99844.63;5046210;28;19920;-86
2022/12/09 00:12:28;;;;;;;;;;;;;;;9.19;79.50;99854.22;5046120;28;20444;-85
2022/12/09 00:14:53;;;;;;;;;;;;;;;9.25;79.50;99840.13;5046721;28;19913;-85
2022/12/09 00:17:19;;;;;;;;;;;;;;;9.42;78.87;99838.28;5046473;28;19916;-85
2022/12/09 00:19:45;;;;;;;;;;;;;;;9.46;79.00;99834.72;5046910;28;19921;-85
2022/12/09 00:22:10;;;;;;;;;;;;;;;9.45;78.57;99832.97;5046535;28;19963;-84
2022/12/09 00:24:35;;;;;;;;;;;;;;;9.41;78.54;99833.88;5047988;28;20700;-85
2022/12/09 00:27:00;;;;;;;;;;;;;;;9.65;77.68;99831.91;5050678;28;19925;-84
2022/12/09 00:29:26;;;;;;;;;;;;;;;9.67;77.53;99838.06;5050437;28;19999;-85
2022/12/09 00:31:51;;;;;;;;;;;;;;;9.76;77.25;99834.44;5050329;28;19959;-85
2022/12/09 00:34:16;;;;;;;;;;;;;;;9.75;77.64;99838.84;5050313;28;20024;-85
2022/12/09 00:36:42;;;;;;;;;;;;;;;9.68;77.80;99850.31;5032733;28;19970;-85
2022/12/09 00:39:08;;;;;;;;;;;;;;;9.79;77.22;99858.13;5050243;28;19917;-84
2022/12/09 00:41:33;;;;;;;;;;;;;;;9.90;76.39;99855.41;5050125;28;19916;-85
2022/12/09 00:43:59;;;;;;;;;;;;;;;9.73;76.63;99866.97;5050091;28;19974;-84
2022/12/09 00:46:24;;;;;;;;;;;;;;;9.34;78.21;99862.91;5050092;28;19916;-85
2022/12/09 00:48:50;;;;;;;;;;;;;;;9.53;78.33;99847.81;5050027;28;20003;-84
2022/12/09 00:51:16;;;;;;;;;;;;;;;9.35;78.27;99846.22;5050194;28;20362;-84
2022/12/09 00:53:42;;;;;;;;;;;;;;;9.13;79.34;99846.38;5050215;28;20395;-85
2022/12/09 00:56:07;;;;;;;;;;;;;;;9.21;78.90;99841.06;5049738;28;19967;-84
2022/12/09 00:58:33;;;;;;;;;;;;;;;9.19;78.87;99848.06;5049973;28;19978;-84
2022/12/09 01:00:58;;;;;;;;;;;;;;;9.33;79.39;99848.88;5049685;28;19965;-85
2022/12/09 01:03:24;;;;;;;;;;;;;;;9.16;79.55;99841.09;5049466;28;19921;-84
2022/12/09 01:05:49;;;;;;;;;;;;;;;9.36;79.61;99834.78;5050166;28;19968;-84
2022/12/09 01:08:15;;;;;;;;;;;;;;;9.43;78.62;99840.00;5050018;28;19924;-84
2022/12/09 01:10:43;;;;;;;;;;;;;;;9.38;79.34;99838.31;5049553;28;19921;-82
2022/12/09 01:13:09;;;;;;;;;;;;;;;9.46;78.67;99837.34;5049820;28;19921;-83
2022/12/09 01:15:35;;;;;;;;;;;;;;;9.24;79.34;99838.41;5048275;28;19924;-81
2022/12/09 01:18:00;;;;;;;;;;;;;;;9.25;79.54;99841.03;5049284;28;20301;-82
2022/12/09 01:20:26;;;;;;;;;;;;;;;9.24;79.78;99847.16;5049457;28;19920;-82
2022/12/09 01:22:51;;;;;;;;;;;;;;;8.99;80.62;99846.47;5049698;28;20390;-82
2022/12/09 01:25:16;;;;;;;;;;;;;;;9.12;79.96;99836.72;5049735;28;20400;-83
2022/12/09 01:27:42;;;;;;;;;;;;;;;9.28;79.75;99834.84;5049804;28;20459;-84
2022/12/09 01:30:09;;;;;;;;;;;;;;;9.29;79.48;99836.59;5049435;28;19920;-85
2022/12/09 01:32:34;;;;;;;;;;;;;;;9.35;79.57;99839.19;5049235;28;19913;-84
2022/12/09 01:35:01;;;;;;;;;;;;;;;9.53;78.99;99847.81;5049325;28;19931;-84
2022/12/09 01:37:27;;;;;;;;;;;;;;;9.53;78.46;99847.81;5048055;28;20130;-85
2022/12/09 01:39:52;;;;;;;;;;;;;;;9.55;78.35;99835.53;5049173;28;20037;-84
2022/12/09 01:42:19;;;;;;;;;;;;;;;9.49;78.72;99834.69;5048910;28;19923;-86
2022/12/09 01:45:03;;;;;;;;;;;;;;;9.40;79.09;99834.75;5049636;28;19920;-85
2022/12/09 01:47:28;;;;;;;;;;;;;;;9.64;78.97;99840.72;5049195;28;19913;-85
2022/12/09 01:49:54;;;;;;;;;;;;;;;9.69;78.16;99838.91;5049383;28;20003;-83
2022/12/09 01:52:22;;;;;;;;;;;;;;;9.50;78.35;99833.81;5048869;28;19917;-83
2022/12/09 01:54:48;;;;;;;;;;;;;;;9.66;78.39;99833.66;5049116;28;20314;-83
2022/12/09 01:57:14;;;;;;;;;;;;;;;9.79;78.25;99837.94;5048858;28;19916;-84
2022/12/09 01:59:40;;;;;;;;;;;;;;;9.84;78.13;99830.00;5048406;28;19925;-84
2022/12/09 02:02:07;;;;;;;;;;;;;;;10.01;77.31;99816.66;5048367;28;19927;-85
2022/12/09 02:04:35;;;;;;;;;;;;;;;10.11;76.92;99818.28;5048692;28;19924;-86
2022/12/09 02:07:02;;;;;;;;;;;;;;;10.08;76.77;99820.09;5048016;28;19921;-86
2022/12/09 02:09:28;;;;;;;;;;;;;;;10.12;76.51;99811.25;5048626;28;19963;-84
2022/12/09 02:12:09;;;;;;;;;;;;;;;10.14;76.31;99810.34;5030631;28;19944;-84
2022/12/09 02:14:38;;;;;;;;;;;;;;;9.90;76.82;99814.13;5048384;28;19920;-84
2022/12/09 02:17:07;;;;;;;;;;;;;;;9.95;77.08;99814.09;5048317;28;19960;-84
2022/12/09 02:19:50;;;;;;;;;;;;;;;10.00;77.33;99822.81;5048635;28;19917;-84
2022/12/09 02:22:19;;;;;;;;;;;;;;;10.08;76.84;99823.59;5048422;28;19923;-84
2022/12/09 02:24:49;;;;;;;;;;;;;;;10.05;76.59;99820.97;5048463;28;19924;-81
2022/12/09 02:27:23;;;;;;;;;;;;;;;9.99;77.26;99818.41;5047812;28;19960;-81
2022/12/09 02:30:18;;;;;;;;;;;;;;;10.14;77.32;99812.97;5048041;28;19916;-83
2022/12/09 02:32:57;;;;;;;;;;;;;;;10.07;77.01;99808.69;5026055;28;20386;-81
2022/12/09 02:35:25;;;;;;;;;;;;;;;10.05;77.16;99799.91;5047871;28;19916;-81
2022/12/09 02:37:59;;;;;;;;;;;;;;;10.11;76.73;99801.59;5047667;28;20295;-82
2022/12/09 02:40:30;;;;;;;;;;;;;;;10.00;77.01;99801.72;5047209;28;19913;-83
2022/12/09 02:42:57;;;;;;;;;;;;;;;10.00;77.59;99799.94;5047532;28;20357;-82
2022/12/09 02:45:24;;;;;;;;;;;;;;;10.23;77.11;99812.00;5047949;28;19916;-82
2022/12/09 02:47:51;;;;;;;;;;;;;;;10.19;76.51;99819.09;5047506;28;19920;-81
2022/12/09 02:50:19;;;;;;;;;;;;;;;9.43;79.53;99836.50;5048128;28;19939;-81
2022/12/09 02:52:45;;;;;;;;;;;;;;;9.56;79.26;99834.63;5047769;28;20537;-81
2022/12/09 02:55:13;;;;;;;;;;;;;;;9.65;78.87;99826.66;5047681;28;20694;-81
2022/12/09 02:57:39;;;;;;;;;;;;;;;9.66;79.42;99823.13;5047479;28;19920;-82
2022/12/09 03:00:05;;;;;;;;;;;;;;;9.81;78.70;99816.84;5046745;28;19916;-80
2022/12/09 03:02:33;;;;;;;;;;;;;;;9.98;78.09;99819.31;5047153;28;19927;-81
2022/12/09 03:05:04;;;;;;;;;;;;;;;9.73;78.97;99831.84;5047151;28;20007;-81
2022/12/09 03:07:50;;;;;;;;;;;;;;;9.58;79.50;99815.31;5047420;28;20705;-81
2022/12/09 03:10:19;;;;;;;;;;;;;;;9.81;79.13;99820.34;5046178;28;19909;-81
2022/12/09 03:12:49;;;;;;;;;;;;;;;10.03;78.29;99830.69;5047563;28;20398;-84
2022/12/09 03:15:17;;;;;;;;;;;;;;;9.48;78.99;99830.31;5028915;28;20345;-83
2022/12/09 03:17:43;;;;;;;;;;;;;;;9.53;79.73;99819.75;5047188;28;20017;-84
2022/12/09 03:20:15;;;;;;;;;;;;;;;9.58;79.56;99822.34;5046934;28;19974;-82
2022/12/09 03:22:42;;;;;;;;;;;;;;;9.70;79.66;99832.75;5047273;28;19912;-82
2022/12/09 03:25:12;;;;;;;;;;;;;;;9.45;79.90;99853.16;5047208;28;20444;-82
2022/12/09 03:27:47;;;;;;;;;;;;;;;9.50;79.75;99843.47;5047435;28;20398;-83
2022/12/09 03:30:13;;;;;;;;;;;;;;;9.65;79.56;99840.72;5046822;28;19920;-82
2022/12/09 03:32:40;;;;;;;;;;;;;;;9.79;79.19;99839.69;5029022;28;20314;-81
2022/12/09 03:35:10;;;;;;;;;;;;;;;9.57;79.49;99845.16;5047280;28;19920;-82
2022/12/09 03:37:38;;;;;;;;;;;;;;;9.60;79.82;99852.16;5047203;28;20015;-81
2022/12/09 03:40:04;;;;;;;;;;;;;;;9.31;80.49;99858.53;5029548;28;20421;-80
2022/12/09 03:42:37;;;;;;;;;;;;;;;9.27;80.88;99857.69;5046635;28;19943;-83
2022/12/09 03:45:06;;;;;;;;;;;;;;;9.04;82.34;99849.94;5027631;28;20066;-82
2022/12/09 03:47:32;;;;;;;;;;;;;;;9.06;82.43;99847.28;5027370;28;19924;-81
2022/12/09 03:49:57;;;;;;;;;;;;;;;9.09;81.62;99856.03;5027203;28;20382;-82
2022/12/09 03:52:31;;;;;;;;;;;;;;;9.38;80.89;99862.88;5041362;28;19920;-82
2022/12/09 03:55:15;;;;;;;;;;;;;;;9.19;80.77;99870.03;5047537;28;19970;-82
2022/12/09 03:57:42;;;;;;;;;;;;;;;9.41;80.76;99865.47;5028740;28;19982;-82
2022/12/09 04:00:08;;;;;;;;;;;;;;;9.52;80.53;99867.16;5049059;28;20391;-82
2022/12/09 04:02:33;;;;;;;;;;;;;;;9.64;79.83;99861.78;5050594;28;19923;-82
2022/12/09 04:04:58;;;;;;;;;;;;;;;9.44;80.31;99854.06;5051063;28;20034;-81
2022/12/09 04:07:24;;;;;;;;;;;;;;;9.42;80.25;99853.19;5050899;28;19923;-81
2022/12/09 04:09:49;;;;;;;;;;;;;;;9.23;81.29;99857.72;5050606;28;19928;-82
2022/12/09 04:12:14;;;;;;;;;;;;;;;9.35;81.31;99865.53;5050788;28;19944;-81
2022/12/09 04:14:40;;;;;;;;;;;;;;;9.49;80.01;99863.66;5050836;28;20433;-82
2022/12/09 04:17:05;;;;;;;;;;;;;;;9.61;79.79;99865.31;5016292;28;19921;-83
2022/12/09 04:19:30;;;;;;;;;;;;;;;9.71;79.47;99854.69;5050137;28;20007;-82
2022/12/09 04:21:56;;;;;;;;;;;;;;;9.89;79.07;99857.16;5048490;28;19964;-83
2022/12/09 04:24:21;;;;;;;;;;;;;;;10.07;78.62;99845.56;5048803;28;19921;-83
2022/12/09 04:26:46;;;;;;;;;;;;;;;10.05;77.70;99839.44;5050592;28;20074;-82
2022/12/09 04:29:12;;;;;;;;;;;;;;;10.01;78.49;99830.69;5050839;28;20460;-81
2022/12/09 04:31:38;;;;;;;;;;;;;;;9.97;77.96;99828.97;5049074;28;19920;-81
2022/12/09 04:34:03;;;;;;;;;;;;;;;9.83;77.90;99826.47;5049090;28;20395;-84
2022/12/09 04:36:29;;;;;;;;;;;;;;;9.89;78.12;99828.19;5049838;28;19921;-82
2022/12/09 04:38:54;;;;;;;;;;;;;;;9.95;77.65;99829.88;5049986;28;20029;-83
2022/12/09 04:41:19;;;;;;;;;;;;;;;9.84;78.14;99830.88;5050807;28;19924;-83
2022/12/09 04:43:45;;;;;;;;;;;;;;;9.80;78.23;99829.13;5050447;28;20395;-79
2022/12/09 04:46:12;;;;;;;;;;;;;;;9.98;78.31;99820.19;5050169;28;20413;-79
2022/12/09 04:48:37;;;;;;;;;;;;;;;10.12;78.20;99832.34;5049835;28;19919;-80
2022/12/09 04:51:02;;;;;;;;;;;;;;;9.70;78.13;99827.50;5049614;28;19913;-81
2022/12/09 04:53:28;;;;;;;;;;;;;;;8.98;81.40;99825.44;5050260;28;19952;-82
2022/12/09 04:56:03;;;;;;;;;;;;;;;9.26;80.80;99821.69;5049198;28;19921;-80
2022/12/09 04:58:29;;;;;;;;;;;;;;;9.54;80.22;99824.09;5049910;28;19923;-81
2022/12/09 05:00:55;;;;;;;;;;;;;;;9.61;79.62;99827.59;5050230;28;19921;-82
2022/12/09 05:03:20;;;;;;;;;;;;;;;9.75;79.42;99833.59;5049301;28;19926;-81
2022/12/09 05:05:45;;;;;;;;;;;;;;;9.78;79.07;99827.44;5049082;28;19917;-81
2022/12/09 05:08:12;;;;;;;;;;;;;;;9.79;79.05;99837.06;5031604;28;19928;-81
2022/12/09 05:10:37;;;;;;;;;;;;;;;9.62;79.29;99848.63;5047196;28;19920;-82
2022/12/09 05:13:03;;;;;;;;;;;;;;;9.55;79.45;99841.66;5049515;28;19963;-82
2022/12/09 05:15:28;;;;;;;;;;;;;;;9.92;78.81;99840.47;5049936;28;19939;-82
2022/12/09 05:17:53;;;;;;;;;;;;;;;9.97;78.51;99851.81;5049139;28;20011;-82
2022/12/09 05:20:18;;;;;;;;;;;;;;;10.00;78.22;99855.28;5046682;28;19964;-81
2022/12/09 05:22:44;;;;;;;;;;;;;;;9.87;78.19;99856.31;5048477;28;19920;-81
2022/12/09 05:25:09;;;;;;;;;;;;;;;9.88;78.42;99854.53;5048816;28;19925;-80
2022/12/09 05:27:36;;;;;;;;;;;;;;;10.00;77.72;99867.59;5048948;28;19917;-80
2022/12/09 05:30:02;;;;;;;;;;;;;;;10.06;77.46;99862.28;5032020;28;19921;-81
2022/12/09 05:32:29;;;;;;;;;;;;;;;10.03;77.95;99863.16;5046906;28;20389;-79
2022/12/09 05:34:54;;;;;;;;;;;;;;;9.82;77.93;99863.38;5049051;28;20311;-79
2022/12/09 05:37:20;;;;;;;;;;;;;;;9.61;78.66;99859.19;5049435;28;19928;-79
2022/12/09 05:39:45;;;;;;;;;;;;;;;9.74;78.25;99852.91;5049344;28;19947;-79
2022/12/09 05:42:10;;;;;;;;;;;;;;;9.82;78.93;99850.19;5048277;28;19916;-81
2022/12/09 05:44:36;;;;;;;;;;;;;;;9.97;78.36;99852.69;5048469;28;19927;-79
2022/12/09 05:47:01;;;;;;;;;;;;;;;9.92;77.98;99854.50;5030039;28;20453;-79
2022/12/09 05:49:27;;;;;;;;;;;;;;;9.90;78.37;99848.38;5030333;28;19927;-81
2022/12/09 05:51:52;;;;;;;;;;;;;;;9.77;78.63;99852.88;5048052;28;19931;-81
2022/12/09 05:54:18;;;;;;;;;;;;;;;9.72;78.29;99846.78;5047999;28;19955;-80
2022/12/09 05:56:43;;;;;;;;;;;;;;;9.85;78.70;99844.91;5048025;28;19963;-82
2022/12/09 05:59:08;;;;;;;;;;;;;;;9.86;77.90;99841.38;5046491;28;19956;-81
2022/12/09 06:01:34;;;;;;;;;;;;;;;9.75;78.77;99841.50;5048297;28;19916;-80
2022/12/09 06:03:59;;;;;;;;;;;;;;;9.75;78.99;99840.63;5047817;28;19925;-80
2022/12/09 06:06:26;;;;;;;;;;;;;;;9.73;79.05;99856.44;5047532;28;19974;-80
2022/12/09 06:08:54;;;;;;;;;;;;;;;9.71;78.90;99854.69;5047651;28;19927;-78
2022/12/09 06:11:19;;;;;;;;;;;;;;;9.82;79.25;99861.63;5047752;28;19923;-78
2022/12/09 06:13:46;;;;;;;;;;;;;;;10.04;78.84;99862.28;5046252;28;19912;-77
2022/12/09 06:16:12;;;;;;;;;;;;;;;10.01;78.47;99872.84;5045796;28;20291;-78
2022/12/09 06:18:38;;;;;;;;;;;;;;;10.03;77.48;99870.22;5027244;28;19963;-78
2022/12/09 06:21:04;;;;;;;;;;;;;;;9.92;77.90;99877.34;5048239;28;20403;-77
2022/12/09 06:23:30;;;;;;;;;;;;;;;9.84;78.05;99877.44;5027568;28;19916;-78
2022/12/09 06:25:55;;;;;;;;;;;;;;;9.61;79.38;99891.66;5047125;28;19928;-79
2022/12/09 06:28:20;;;;;;;;;;;;;;;9.46;80.15;99892.63;5047166;28;20031;-78
2022/12/09 06:30:46;;;;;;;;;;;;;;;9.55;80.33;99898.75;5035310;28;20385;-80
2022/12/09 06:33:11;;;;;;;;;;;;;;;9.25;81.28;99905.94;5038711;28;20682;-80
2022/12/09 06:35:36;;;;;;;;;;;;;;;9.26;81.67;99907.69;5041305;28;20019;-80
2022/12/09 06:38:01;;;;;;;;;;;;;;;9.30;81.67;99909.44;5047536;28;19924;-79
2022/12/09 06:40:27;;;;;;;;;;;;;;;9.34;81.16;99907.66;5047387;28;20322;-81
2022/12/09 06:42:53;;;;;;;;;;;;;;;9.49;81.39;99903.16;5047076;28;19924;-81
2022/12/09 06:45:19;;;;;;;;;;;;;;;9.67;80.03;99899.50;5030686;28;19924;-80
2022/12/09 06:47:45;;;;;;;;;;;;;;;9.76;79.51;99902.94;5034067;28;19921;-78
2022/12/09 06:50:10;;;;;;;;;;;;;;;9.72;79.99;99903.88;5045723;28;19917;-80
2022/12/09 06:52:36;;;;;;;;;;;;;;;9.46;80.20;99904.94;5047495;28;19971;-80
2022/12/09 06:55:02;;;;;;;;;;;;;;;9.42;80.81;99895.31;5047760;28;20386;-82
2022/12/09 06:57:27;;;;;;;;;;;;;;;9.42;81.07;99903.19;5040844;28;19999;-79
2022/12/09 06:59:53;;;;;;;;;;;;;;;9.53;80.79;99901.38;5047462;28;20011;-77
2022/12/09 07:02:18;;;;;;;;;;;;;;;9.45;80.56;99901.44;5046147;28;19924;-80
2022/12/09 07:04:43;;;;;;;;;;;;;;;9.63;80.13;99910.06;5029043;28;19935;-80
2022/12/09 07:07:09;;;;;;;;;;;;;;;9.43;80.32;99904.97;5045495;28;19921;-79
2022/12/09 07:09:34;;;;;;;;;;;;;;;9.29;81.12;99892.75;5045599;28;19920;-80
2022/12/09 07:12:00;;;;;;;;;;;;;;;9.41;81.47;99902.34;5037714;28;19924;-79
2022/12/09 07:14:25;;;;;;;;;;;;;;;9.55;80.91;99901.38;5027962;28;19917;-79
2022/12/09 07:16:51;;;;;;;;;;;;;;;9.71;80.86;99902.13;5027940;28;20342;-79
2022/12/09 07:19:19;;;;;;;;;;;;;;;9.73;80.03;99903.88;5035265;28;20279;-79
2022/12/09 07:21:47;;;;;;;;;;;;;;;9.74;80.49;99907.38;5046065;28;19962;-79
2022/12/09 07:24:12;;;;;;;;;;;;;;;9.52;81.64;99910.16;5047148;28;19920;-79
2022/12/09 07:26:38;;;;;;;;;;;;;;;9.75;80.84;99909.13;5028410;28;19921;-80
2022/12/09 07:29:04;;;;;;;;;;;;;;;9.81;80.90;99912.56;5046957;28;20007;-80
2022/12/09 07:31:29;;;;;;;;;;;;;;;9.83;79.81;99910.78;5047157;28;19924;-81
2022/12/09 07:33:55;;;;;;;;;;;;;;;9.88;79.87;99907.25;5010285;28;19924;-80
2022/12/09 07:36:22;;;;;;;;;;;;;;;9.78;79.94;99903.81;5040445;28;19939;-80
2022/12/09 07:38:47;;;;;;;;;;;;;;;10.02;79.68;99895.69;5047121;28;19922;-79
2022/12/09 07:41:16;;;;;;;;;;;;;;;10.16;78.55;99894.66;5046856;28;20015;-80
2022/12/09 07:43:42;;;;;;;;;;;;;;;9.89;79.11;99906.38;5047621;28;19920;-80
2022/12/09 07:46:07;;;;;;;;;;;;;;;9.73;80.92;99909.13;5046987;28;19916;-80
2022/12/09 07:48:33;;;;;;;;;;;;;;;9.64;80.15;99903.94;5045018;28;19928;-81
2022/12/09 07:51:02;;;;;;;;;;;;;;;9.66;81.47;99910.91;5045756;28;19939;-79
2022/12/09 07:53:28;;;;;;;;;;;;;;;9.74;81.19;99913.50;5047293;28;19924;-80
2022/12/09 07:55:53;;;;;;;;;;;;;;;9.73;81.30;99921.41;5046235;28;19917;-80
2022/12/09 07:58:19;;;;;;;;;;;;;;;9.99;80.32;99911.53;5029053;28;19925;-80
2022/12/09 08:00:44;;;;;;;;;;;;;;;10.09;78.76;99900.91;5026426;28;19917;-80
2022/12/09 08:03:16;;;;;;;;;;;;;;;9.72;80.32;99906.50;5028002;28;20044;-80
2022/12/09 08:05:48;;;;;;;;;;;;;;;9.72;80.59;99898.59;5044939;28;20345;-80
2022/12/09 08:08:14;;;;;;;;;;;;;;;9.75;80.03;99909.97;5046695;28;19913;-80
2022/12/09 08:10:39;;;;;;;;;;;;;;;9.91;79.96;99918.63;5045610;28;19921;-80
2022/12/09 08:13:08;;;;;;;;;;;;;;;10.14;79.23;99914.91;5046538;28;19916;-80
2022/12/09 08:15:33;;;;;;;;;;;;;;;10.28;78.46;99920.06;5043671;28;19916;-78
2022/12/09 08:17:59;;;;;;;;;;;;;;;9.97;78.63;99921.19;5045001;28;19932;-78
2022/12/09 08:20:24;;;;;;;;;;;;;;;10.08;78.39;99915.84;5044856;28;20442;-78
2022/12/09 08:22:50;;;;;;;;;;;;;;;10.07;78.42;99910.56;5045525;28;19921;-77
2022/12/09 08:25:15;;;;;;;;;;;;;;;10.08;77.55;99915.84;5046232;28;19944;-77
2022/12/09 08:27:41;;;;;;;;;;;;;;;9.99;77.62;99921.19;5045655;28;19916;-77
2022/12/09 08:30:08;;;;;;;;;;;;;;;9.92;78.45;99914.25;5027889;28;19970;-78
2022/12/09 08:32:37;;;;;;;;;;;;;;;10.08;78.81;99922.88;5044596;28;20003;-78
2022/12/09 08:35:02;;;;;;;;;;;;;;;9.90;79.44;99914.25;5029717;28;20024;-77
2022/12/09 08:37:27;;;;;;;;;;;;;;;9.97;79.16;99915.94;5038829;28;19960;-79
2022/12/09 08:39:53;;;;;;;;;;;;;;;9.82;79.58;99910.78;5045445;28;19916;-78
2022/12/09 08:42:18;;;;;;;;;;;;;;;9.81;80.18;99894.13;5032967;28;20000;-78
2022/12/09 08:44:43;;;;;;;;;;;;;;;9.85;80.06;99890.59;5027853;28;19928;-78
2022/12/09 08:47:09;;;;;;;;;;;;;;;9.91;79.85;99875.59;5047845;28;19928;-78
2022/12/09 08:49:34;;;;;;;;;;;;;;;9.95;79.37;99861.50;5048860;28;19923;-78
2022/12/09 08:51:59;;;;;;;;;;;;;;;10.28;78.32;99894.53;5048674;28;19925;-78
2022/12/09 08:54:25;;;;;;;;;;;;;;;10.18;78.35;99887.66;5048017;28;19931;-78
2022/12/09 08:56:52;;;;;;;;;;;;;;;10.14;78.48;99891.19;5024920;28;20302;-79
2022/12/09 08:59:17;;;;;;;;;;;;;;;10.29;77.71;99895.44;5044650;28;19920;-80
2022/12/09 09:01:43;;;;;;;;;;;;;;;10.00;79.34;99891.31;5035639;28;19917;-78
2022/12/09 09:04:10;;;;;;;;;;;;;;;10.06;78.99;99882.50;5011552;28;19917;-79
2022/12/09 09:06:36;;;;;;;;;;;;;;;10.23;78.11;99893.72;5011500;28;19979;-79
2022/12/09 09:09:02;;;;;;;;;;;;;;;10.13;78.02;99885.06;5029396;28;19913;-79
2022/12/09 09:11:27;;;;;;;;;;;;;;;9.88;79.63;99880.91;5029339;28;19924;-79
2022/12/09 09:13:53;;;;;;;;;;;;;;;9.99;78.55;99879.91;5008259;28;19944;-79
2022/12/09 09:16:22;;;;;;;;;;;;;;;9.96;78.65;99876.41;5020764;28;19927;-79
2022/12/09 09:18:48;;;;;;;;;;;;;;;10.12;79.31;99872.75;5027489;28;19921;-79
2022/12/09 09:21:14;;;;;;;;;;;;;;;10.06;79.80;99874.59;5005349;28;19921;-79
2022/12/09 09:23:40;;;;;;;;;;;;;;;10.26;79.35;99880.50;5012032;28;19918;-78
2022/12/09 09:26:26;;;;;;;;;;;;;;;10.18;78.93;99866.56;5026580;28;19921;-79
2022/12/09 09:28:52;;;;;;;;;;;;;;;10.16;79.50;99848.13;5024091;28;20410;-79
2022/12/09 09:31:19;;;;;;;;;;;;;;;10.29;78.87;99840.06;5022875;28;19917;-79
2022/12/09 09:33:46;;;;;;;;;;;;;;;10.17;78.88;99841.94;5028964;28;19921;-78
2022/12/09 09:36:13;;;;;;;;;;;;;;;10.40;78.01;99840.84;5028787;28;19996;-79
2022/12/09 09:38:38;;;;;;;;;;;;;;;10.30;77.62;99810.16;5028664;28;19920;-79
2022/12/09 09:41:15;;;;;;;;;;;;;;;10.42;77.58;99825.84;5028511;28;19924;-78
2022/12/09 09:43:40;;;;;;;;;;;;;;;10.40;77.61;99832.94;5022815;28;20322;-79
2022/12/09 09:46:06;;;;;;;;;;;;;;;9.99;79.42;99837.75;5028396;28;19928;-78
2022/12/09 09:48:33;;;;;;;;;;;;;;;10.28;78.49;99833.91;5028286;28;19920;-78
2022/12/09 09:51:05;;;;;;;;;;;;;;;10.33;78.67;99836.53;5027615;28;19921;-80
2022/12/09 09:53:32;;;;;;;;;;;;;;;10.25;78.87;99826.03;5009123;28;20424;-81
2022/12/09 09:55:59;;;;;;;;;;;;;;;10.59;77.21;99816.88;5028138;28;19917;-78
2022/12/09 09:58:30;;;;;;;;;;;;;;;10.54;77.13;99817.78;5027483;28;19921;-81
2022/12/09 10:00:58;;;;;;;;;;;;;;;10.67;77.15;99825.53;5027771;28;19917;-78
2022/12/09 10:03:44;;;;;;;;;;;;;;;10.73;75.91;99826.31;5026398;28;19917;-78
2022/12/09 10:06:29;;;;;;;;;;;;;;;10.80;75.92;99818.31;5031948;28;20560;-79
2022/12/09 10:09:12;;;;;;;;;;;;;;;10.75;76.30;99814.00;5029779;28;19920;-78
2022/12/09 10:11:45;;;;;;;;;;;;;;;10.75;76.01;99818.38;5028055;28;20383;-77
2022/12/09 10:14:29;;;;;;;;;;;;;;;10.81;76.07;99813.03;5048382;28;20117;-77
2022/12/09 10:17:08;;;;;;;;;;;;;;;10.80;75.81;99799.84;5044255;28;19917;-78
2022/12/09 10:19:54;;;;;;;;;;;;;;;10.77;75.62;99790.25;5045030;28;19923;-78
2022/12/09 10:22:21;;;;;;;;;;;;;;;10.81;75.41;99793.69;5025313;28;20017;-80
2022/12/09 10:24:49;;;;;;;;;;;;;;;10.71;76.00;99803.53;5033338;28;19927;-78
2022/12/09 10:27:14;;;;;;;;;;;;;;;10.82;75.94;99796.31;5022083;28;19924;-78
2022/12/09 10:29:48;;;;;;;;;;;;;;;10.96;75.51;99789.97;5044785;28;19948;-78
2022/12/09 10:32:16;;;;;;;;;;;;;;;10.88;74.94;99775.09;5026682;28;19923;-78
2022/12/09 10:34:42;;;;;;;;;;;;;;;10.67;75.54;99767.50;5044336;28;20063;-79
2022/12/09 10:37:18;;;;;;;;;;;;;;;10.70;76.11;99759.56;5044547;28;20438;-79
2022/12/09 10:39:43;;;;;;;;;;;;;;;10.51;76.42;99748.41;5012935;28;20386;-80
2022/12/09 10:45:02;;;;;;;;;;;;;;;10.41;77.07;99746.75;5035881;28;19919;-78
2022/12/09 10:47:33;;;;;;;;;;;;;;;10.37;77.08;99738.03;5040332;28;20450;-79
2022/12/09 10:49:59;;;;;;;;;;;;;;;9.84;78.57;99728.09;5044888;28;20346;-77
2022/12/09 10:52:28;;;;;;;;;;;;;;;10.20;78.82;99735.59;5044610;28;19970;-78
2022/12/09 10:54:53;;;;;;;;;;;;;;;10.61;77.64;99726.25;5045639;28;20707;-79
2022/12/09 10:57:23;;;;;;;;;;;;;;;10.75;76.89;99724.28;5046074;28;19921;-78
2022/12/09 10:59:56;;;;;;;;;;;;;;;10.91;76.17;99718.78;5046033;28;19944;-78
2022/12/09 11:02:22;;;;;;;;;;;;;;;10.45;76.54;99714.19;5046193;28;19913;-79
2022/12/09 11:04:47;;;;;;;;;;;;;;;10.32;76.69;99713.47;5046190;28;20283;-79
2022/12/09 11:07:13;;;;;;;;;;;;;;;10.12;77.52;99711.09;5029337;28;19920;-78
2022/12/09 11:09:40;;;;;;;;;;;;;;;9.89;78.55;99706.97;5027845;28;19986;-78
2022/12/09 11:12:13;;;;;;;;;;;;;;;10.11;78.35;99714.63;5046804;28;19912;-78
2022/12/09 11:14:40;;;;;;;;;;;;;;;10.11;77.86;99717.25;5046621;28;20445;-78
2022/12/09 11:17:22;;;;;;;;;;;;;;;10.00;77.91;99720.03;5046633;28;19917;-79
2022/12/09 11:20:08;;;;;;;;;;;;;;;10.10;78.38;99713.75;5028825;28;19952;-78
2022/12/09 11:22:38;;;;;;;;;;;;;;;10.15;78.17;99701.38;5046050;28;19970;-80
2022/12/09 11:25:20;;;;;;;;;;;;;;;10.25;77.94;99706.53;5029492;28;20022;-77
2022/12/09 11:27:48;;;;;;;;;;;;;;;10.30;78.36;99704.69;5043637;28;19920;-78
2022/12/09 11:30:14;;;;;;;;;;;;;;;9.88;78.98;99709.63;5046852;28;19971;-79
2022/12/09 11:32:58;;;;;;;;;;;;;;;9.90;78.95;99695.56;5046086;28;19968;-78
2022/12/09 11:35:32;;;;;;;;;;;;;;;10.06;79.12;99698.88;5047285;28;19917;-77
2022/12/09 11:38:03;;;;;;;;;;;;;;;10.26;79.14;99684.56;5028169;28;19912;-78
2022/12/09 11:40:29;;;;;;;;;;;;;;;10.53;77.25;99683.28;5047061;28;20391;-77
2022/12/09 11:42:55;;;;;;;;;;;;;;;10.55;76.92;99692.06;5046385;28;19975;-79
2022/12/09 11:45:20;;;;;;;;;;;;;;;10.55;77.01;99685.03;5047049;28;20011;-77
2022/12/09 11:47:47;;;;;;;;;;;;;;;10.64;76.48;99669.94;5028860;28;20015;-78
2022/12/09 11:50:19;;;;;;;;;;;;;;;10.46;76.25;99671.97;5046491;28;19921;-78
2022/12/09 11:52:45;;;;;;;;;;;;;;;10.15;78.35;99671.53;5046545;28;19916;-79
2022/12/09 11:55:21;;;;;;;;;;;;;;;10.30;77.97;99662.50;5046882;28;19974;-78
2022/12/09 11:57:49;;;;;;;;;;;;;;;10.36;77.80;99671.25;5028530;28;19916;-79
2022/12/09 12:00:16;;;;;;;;;;;;;;;10.34;78.09;99685.34;5046746;28;20018;-79
2022/12/09 12:02:53;;;;;;;;;;;;;;;10.61;77.33;99685.81;5028351;28;20322;-79
2022/12/09 12:05:24;;;;;;;;;;;;;;;10.23;77.74;99674.91;5046548;28;19921;-77
2022/12/09 12:07:59;;;;;;;;;;;;;;;10.34;77.79;99674.78;5046291;28;20011;-78
2022/12/09 12:10:27;;;;;;;;;;;;;;;10.44;77.44;99675.53;5046780;28;19924;-78
2022/12/09 12:13:02;;;;;;;;;;;;;;;10.52;76.46;99671.88;5046002;28;20376;-79
2022/12/09 12:15:39;;;;;;;;;;;;;;;10.30;77.54;99667.78;5028701;28;20717;-79
2022/12/09 12:18:09;;;;;;;;;;;;;;;10.35;77.50;99673.91;5046312;28;20387;-80
2022/12/09 12:20:42;;;;;;;;;;;;;;;10.55;77.57;99676.22;5047757;28;19923;-81
2022/12/09 12:23:20;;;;;;;;;;;;;;;10.55;77.29;99653.38;5049931;28;20402;-79
2022/12/09 12:25:53;;;;;;;;;;;;;;;10.47;77.84;99655.28;5049824;28;19913;-77
2022/12/09 12:28:27;;;;;;;;;;;;;;;10.51;77.79;99651.66;5049527;28;19913;-78
2022/12/09 12:31:05;;;;;;;;;;;;;;;10.60;77.07;99668.25;5050330;28;19917;-78
2022/12/09 12:33:48;;;;;;;;;;;;;;;10.65;77.29;99666.44;5050338;28;19913;-78
2022/12/09 12:36:32;;;;;;;;;;;;;;;10.70;77.07;99667.22;5049948;28;20445;-78
2022/12/09 12:39:04;;;;;;;;;;;;;;;10.27;78.23;99649.38;5049709;28;19916;-78
2022/12/09 12:41:49;;;;;;;;;;;;;;;10.20;78.48;99646.81;5050206;28;19938;-78
2022/12/09 12:47:35;;;;;;;;;;;;;;;10.24;78.84;99647.66;5050119;28;20357;-78
2022/12/09 12:50:06;;;;;;;;;;;;;;;10.46;78.01;99658.78;5018294;28;19917;-77
2022/12/09 12:52:31;;;;;;;;;;;;;;;10.29;78.84;99659.00;5049879;28;19917;-79
2022/12/09 12:55:00;;;;;;;;;;;;;;;10.24;77.98;99657.31;5049355;28;20307;-79
2022/12/09 12:57:38;;;;;;;;;;;;;;;10.00;78.86;99659.41;5049486;28;20413;-78
2022/12/09 13:00:11;;;;;;;;;;;;;;;9.84;80.28;99659.59;5049742;28;20379;-78
2022/12/09 13:02:40;;;;;;;;;;;;;;;10.11;79.66;99664.53;5031299;28;20140;-78